createdAt,value
2019-04-11T00:00:09.023Z,56.60
2019-04-11T00:02:37.263Z,56.76
2019-04-11T00:05:06.442Z,56.87
2019-04-11T00:07:34.674Z,56.92
2019-04-11T00:10:04.075Z,57.03
2019-04-11T00:12:32.679Z,57.20
2019-04-11T00:15:00.872Z,57.32
2019-04-11T00:17:30.028Z,57.15
2019-04-11T00:19:58.384Z,57.18
2019-04-11T00:22:27.778Z,57.22
2019-04-11T00:24:56.001Z,57.04
2019-04-11T00:27:24.638Z,56.94
2019-04-11T00:29:53.372Z,56.88
2019-04-11T00:32:21.776Z,57.06
2019-04-11T00:34:51.090Z,57.16
2019-04-11T00:37:19.477Z,57.28
2019-04-11T00:39:47.952Z,57.42
2019-04-11T00:42:16.608Z,57.32
2019-04-11T00:44:45.243Z,57.42
2019-04-11T00:47:13.764Z,57.29
2019-04-11T00:49:42.934Z,56.95
2019-04-11T00:52:12.100Z,56.90
2019-04-11T00:54:40.699Z,56.72
2019-04-11T00:57:09.055Z,56.36
2019-04-11T00:59:38.397Z,56.15
2019-04-11T01:02:07.542Z,56.18
2019-04-11T01:04:36.980Z,56.05
2019-04-11T01:07:05.273Z,56.00
2019-04-11T01:09:34.645Z,55.43
2019-04-11T01:12:02.978Z,55.34
2019-04-11T01:14:32.039Z,55.21
2019-04-11T01:17:01.102Z,55.22
2019-04-11T01:19:29.417Z,54.98
2019-04-11T01:21:59.201Z,55.03
2019-04-11T01:24:28.177Z,54.88
2019-04-11T01:26:57.379Z,54.76
2019-04-11T01:29:27.225Z,54.83
2019-04-11T01:31:58.090Z,54.79
2019-04-11T01:34:26.665Z,54.76
2019-04-11T01:36:55.487Z,54.82
2019-04-11T01:39:29.431Z,54.69
2019-04-11T01:41:58.723Z,54.74
2019-04-11T01:44:26.940Z,54.71
2019-04-11T01:46:56.260Z,54.39
2019-04-11T01:49:26.199Z,54.38
2019-04-11T01:51:55.989Z,54.16
2019-04-11T01:54:25.842Z,54.21
2019-04-11T01:56:54.183Z,54.15
2019-04-11T01:59:23.589Z,54.13
2019-04-11T02:02:03.423Z,54.27
2019-04-11T02:04:34.182Z,54.29
2019-04-11T02:07:02.597Z,54.34
2019-04-11T02:09:30.793Z,54.27
2019-04-11T02:11:59.291Z,54.29
2019-04-11T02:14:27.999Z,54.30
2019-04-11T02:16:57.077Z,54.41
2019-04-11T02:19:25.912Z,54.47
2019-04-11T02:21:55.862Z,54.57
2019-04-11T02:24:25.994Z,54.58
2019-04-11T02:27:02.942Z,54.56
2019-04-11T02:29:31.332Z,54.65
2019-04-11T02:32:03.418Z,54.82
2019-04-11T02:34:29.872Z,54.75
2019-04-11T02:36:59.810Z,54.68
2019-04-11T02:39:30.792Z,54.71
2019-04-11T02:41:59.136Z,54.93
2019-04-11T02:44:43.172Z,55.04
2019-04-11T02:47:07.477Z,55.19
2019-04-11T02:49:27.998Z,55.22
2019-04-11T02:51:56.288Z,55.31
2019-04-11T02:54:26.391Z,55.38
2019-04-11T02:56:55.027Z,55.53
2019-04-11T02:59:25.162Z,55.58
2019-04-11T03:01:53.223Z,55.64
2019-04-11T03:04:22.762Z,55.87
2019-04-11T03:06:52.003Z,55.94
2019-04-11T03:09:22.029Z,56.11
2019-04-11T03:11:51.567Z,56.28
2019-04-11T03:14:20.693Z,56.49
2019-04-11T03:16:57.334Z,56.77
2019-04-11T03:19:35.694Z,56.95
2019-04-11T03:21:49.985Z,57.14
2019-04-11T03:24:18.939Z,57.45
2019-04-11T03:26:47.154Z,57.65
2019-04-11T03:29:15.605Z,57.76
2019-04-11T03:32:34.163Z,57.92
2019-04-11T03:37:22.289Z,58.32
2019-04-11T03:39:32.720Z,58.40
2019-04-11T03:41:59.736Z,58.61
2019-04-11T03:44:23.531Z,58.67
2019-04-11T03:47:02.137Z,58.85
2019-04-11T03:49:28.252Z,58.92
2019-04-11T03:51:47.927Z,59.18
2019-04-11T03:54:17.793Z,59.33
2019-04-11T03:56:46.041Z,59.67
2019-04-11T03:59:16.619Z,59.75
2019-04-11T04:01:44.502Z,60.05
2019-04-11T04:04:15.491Z,60.19
2019-04-11T04:06:45.623Z,60.53
2019-04-11T04:09:16.336Z,60.82
2019-04-11T04:11:46.886Z,60.99
2019-04-11T04:14:24.182Z,61.25
2019-04-11T04:17:03.667Z,61.48
2019-04-11T04:19:47.729Z,61.92
2019-04-11T04:22:35.744Z,62.18
2019-04-11T04:25:06.337Z,62.37
2019-04-11T04:27:35.220Z,62.58
2019-04-11T04:30:05.925Z,62.59
2019-04-11T04:32:34.393Z,62.64
2019-04-11T04:35:03.092Z,63.07
2019-04-11T04:37:34.697Z,63.27
2019-04-11T04:40:24.068Z,63.35
2019-04-11T04:42:40.367Z,63.84
2019-04-11T04:45:05.653Z,63.88
2019-04-11T04:47:42.387Z,64.16
2019-04-11T04:50:06.562Z,64.29
2019-04-11T04:52:36.587Z,64.28
2019-04-11T04:55:06.113Z,64.48
2019-04-11T04:57:35.836Z,64.78
2019-04-11T05:00:07.193Z,64.72
2019-04-11T05:02:37.376Z,64.76
2019-04-11T05:05:06.831Z,64.75
2019-04-11T05:07:40.194Z,64.77
2019-04-11T05:10:07.310Z,64.76
2019-04-11T05:12:36.579Z,64.80
2019-04-11T05:15:07.909Z,63.39
2019-04-11T05:17:36.517Z,59.90
2019-04-11T05:20:07.496Z,56.37
2019-04-11T05:22:35.707Z,53.58
2019-04-11T05:25:05.430Z,51.71
2019-04-11T05:27:33.929Z,49.87
2019-04-11T05:30:02.953Z,48.24
2019-04-11T05:32:31.376Z,47.54
2019-04-11T05:35:00.567Z,47.14
2019-04-11T05:37:29.244Z,46.47
2019-04-11T05:39:57.451Z,46.60
2019-04-11T05:42:27.128Z,46.28
2019-04-11T05:44:56.865Z,45.73
2019-04-11T05:47:25.635Z,45.72
2019-04-11T05:50:13.793Z,45.58
2019-04-11T05:52:42.125Z,45.68
2019-04-11T05:55:13.589Z,45.72
2019-04-11T05:57:43.158Z,45.49
2019-04-11T06:00:13.833Z,45.52
2019-04-11T06:02:43.845Z,45.89
2019-04-11T06:05:24.494Z,46.18
2019-04-11T06:08:00.406Z,46.11
2019-04-11T06:10:44.748Z,46.38
2019-04-11T06:13:17.073Z,47.26
2019-04-11T06:15:47.335Z,47.91
2019-04-11T06:18:37.403Z,49.24
2019-04-11T06:21:21.830Z,50.28
2019-04-11T06:23:57.735Z,51.10
2019-04-11T06:26:44.991Z,51.68
2019-04-11T06:29:21.267Z,52.25
2019-04-11T06:31:55.455Z,52.45
2019-04-11T06:34:26.937Z,52.51
2019-04-11T06:37:01.312Z,52.61
2019-04-11T06:39:37.810Z,52.97
2019-04-11T06:42:19.825Z,52.98
2019-04-11T06:44:56.434Z,53.63
2019-04-11T06:47:45.104Z,54.07
2019-04-11T06:50:21.126Z,54.30
2019-04-11T06:52:50.920Z,54.43
2019-04-11T06:55:35.602Z,54.19
2019-04-11T06:58:06.687Z,53.63
2019-04-11T07:00:36.751Z,53.38
2019-04-11T07:03:17.932Z,53.32
2019-04-11T07:05:38.686Z,53.16
2019-04-11T07:08:07.738Z,53.29
2019-04-11T07:10:38.228Z,53.33
2019-04-11T07:13:14.286Z,53.23
2019-04-11T07:15:44.573Z,52.86
2019-04-11T07:18:31.235Z,52.45
2019-04-11T07:21:01.199Z,52.50
2019-04-11T07:23:47.534Z,52.54
2019-04-11T07:26:17.380Z,52.32
2019-04-11T07:28:47.955Z,51.91
2019-04-11T07:31:21.645Z,51.64
2019-04-11T07:33:56.084Z,51.24
2019-04-11T07:36:43.918Z,51.01
2019-04-11T07:39:14.625Z,50.80
2019-04-11T07:41:45.588Z,50.83
2019-04-11T07:44:19.625Z,50.51
2019-04-11T07:46:55.938Z,50.26
2019-04-11T07:49:35.095Z,50.03
2019-04-11T07:52:13.513Z,49.68
2019-04-11T07:54:43.230Z,48.92
2019-04-11T07:57:22.612Z,48.66
2019-04-11T07:59:55.798Z,48.38
2019-04-11T08:02:41.638Z,47.75
2019-04-11T08:05:28.224Z,47.79
2019-04-11T08:08:01.117Z,47.90
2019-04-11T08:10:30.979Z,46.81
2019-04-11T08:13:01.668Z,46.92
2019-04-11T08:15:34.469Z,46.42
2019-04-11T08:18:04.378Z,45.74
2019-04-11T08:20:50.467Z,44.66
2019-04-11T08:23:21.326Z,43.78
2019-04-11T08:26:00.230Z,42.74
2019-04-11T08:28:28.968Z,42.45
2019-04-11T08:31:01.643Z,42.04
2019-04-11T08:33:31.115Z,41.76
2019-04-11T08:36:03.653Z,41.74
2019-04-11T08:38:34.267Z,42.26
2019-04-11T08:41:19.803Z,42.31
2019-04-11T08:43:48.364Z,42.70
2019-04-11T08:46:26.981Z,42.87
2019-04-11T08:48:59.512Z,42.62
2019-04-11T08:51:29.476Z,41.92
2019-04-11T08:54:15.432Z,42.03
2019-04-11T08:56:45.146Z,42.32
2019-04-11T08:59:33.578Z,41.42
2019-04-11T09:02:02.675Z,41.49
2019-04-11T09:04:50.309Z,41.81
2019-04-11T09:07:23.268Z,41.13
2019-04-11T09:10:11.591Z,41.10
2019-04-11T09:12:42.626Z,40.94
2019-04-11T09:15:12.759Z,40.70
2019-04-11T09:17:55.118Z,40.41
2019-04-11T09:20:23.473Z,39.82
2019-04-11T09:22:53.834Z,39.27
2019-04-11T09:25:43.320Z,39.24
2019-04-11T09:28:16.107Z,39.26
2019-04-11T09:30:47.267Z,38.91
2019-04-11T09:33:24.670Z,38.75
2019-04-11T09:35:57.661Z,39.40
2019-04-11T09:38:28.534Z,39.07
2019-04-11T09:41:10.685Z,39.05
2019-04-11T09:43:40.307Z,38.61
2019-04-11T09:46:27.205Z,37.92
2019-04-11T09:48:58.049Z,37.40
2019-04-11T09:51:47.682Z,37.08
2019-04-11T09:54:37.214Z,37.06
2019-04-11T09:57:10.043Z,36.39
2019-04-11T09:59:56.063Z,36.65
2019-04-11T10:02:42.383Z,36.64
2019-04-11T10:05:13.693Z,37.25
2019-04-11T10:08:00.006Z,37.53
2019-04-11T10:10:33.110Z,37.76
2019-04-11T10:13:06.721Z,37.46
2019-04-11T10:15:45.280Z,37.46
2019-04-11T10:18:37.325Z,36.85
2019-04-11T10:21:01.324Z,36.85
2019-04-11T10:23:37.158Z,37.75
2019-04-11T10:26:05.718Z,38.49
2019-04-11T10:28:51.689Z,38.93
2019-04-11T10:31:20.384Z,39.30
2019-04-11T10:33:59.623Z,39.58
2019-04-11T10:36:29.678Z,39.31
2019-04-11T10:39:15.318Z,39.55
2019-04-11T10:41:49.094Z,39.57
2019-04-11T10:44:18.546Z,39.19
2019-04-11T10:46:51.598Z,39.24
2019-04-11T10:49:28.415Z,39.83
2019-04-11T10:52:10.344Z,39.98
2019-04-11T10:54:40.812Z,39.89
2019-04-11T10:57:11.815Z,39.83
2019-04-11T10:59:42.930Z,39.51
2019-04-11T11:02:29.637Z,39.23
2019-04-11T11:04:59.024Z,39.31
2019-04-11T11:07:28.758Z,39.08
2019-04-11T11:09:58.800Z,38.50
2019-04-11T11:12:31.232Z,38.42
2019-04-11T11:15:09.961Z,38.35
2019-04-11T11:18:29.559Z,38.35
2019-04-11T11:20:38.496Z,38.37
2019-04-11T11:23:07.729Z,38.31
2019-04-11T11:25:53.120Z,37.90
2019-04-11T11:28:30.129Z,38.44
2019-04-11T11:31:05.361Z,39.02
2019-04-11T11:33:34.413Z,39.59
2019-04-11T11:36:17.317Z,40.18
2019-04-11T11:38:54.375Z,40.24
2019-04-11T11:41:40.667Z,40.86
2019-04-11T11:44:10.257Z,41.45
2019-04-11T11:46:59.871Z,41.95
2019-04-11T11:49:42.445Z,41.97
2019-04-11T11:52:00.435Z,42.05
2019-04-11T11:54:31.320Z,42.17
2019-04-11T11:57:00.217Z,42.42
2019-04-11T11:59:32.712Z,42.45
2019-04-11T12:02:02.544Z,42.56
2019-04-11T12:04:51.930Z,42.46
2019-04-11T12:07:22.998Z,42.19
2019-04-11T12:10:09.251Z,41.82
2019-04-11T12:12:42.185Z,41.96
2019-04-11T12:15:14.283Z,42.23
2019-04-11T12:17:59.602Z,42.50
2019-04-11T12:20:29.643Z,42.39
2019-04-11T12:22:59.461Z,42.27
2019-04-11T12:25:47.405Z,41.77
2019-04-11T12:28:37.223Z,41.95
2019-04-11T12:31:09.899Z,42.00
2019-04-11T12:33:39.839Z,41.70
2019-04-11T12:36:09.989Z,41.37
2019-04-11T12:38:43.291Z,41.12
2019-04-11T12:41:29.547Z,40.74
2019-04-11T12:44:05.531Z,39.69
2019-04-11T12:46:52.368Z,39.37
2019-04-11T12:49:28.234Z,39.62
2019-04-11T12:52:13.099Z,38.83
2019-04-11T12:54:46.891Z,38.43
2019-04-11T12:57:19.483Z,38.24
2019-04-11T12:59:49.343Z,38.18
2019-04-11T13:02:19.196Z,38.11
2019-04-11T13:04:47.401Z,38.40
2019-04-11T13:07:33.898Z,38.41
2019-04-11T13:10:03.790Z,38.76
2019-04-11T13:12:33.643Z,38.82
2019-04-11T13:15:21.248Z,39.11
2019-04-11T13:18:00.259Z,39.37
2019-04-11T13:20:48.233Z,39.61
2019-04-11T13:23:36.332Z,39.79
2019-04-11T13:26:17.526Z,39.88
2019-04-11T13:28:51.760Z,40.36
2019-04-11T13:31:24.749Z,40.82
2019-04-11T13:33:54.809Z,41.15
2019-04-11T13:36:27.352Z,41.61
2019-04-11T13:38:55.560Z,41.75
2019-04-11T13:41:41.645Z,42.01
2019-04-11T13:44:11.495Z,42.35
2019-04-11T13:46:53.493Z,42.52
2019-04-11T13:49:29.176Z,42.39
2019-04-11T13:52:05.340Z,42.54
2019-04-11T13:54:41.385Z,42.30
2019-04-11T13:57:26.331Z,42.32
2019-04-11T14:00:12.192Z,42.36
2019-04-11T14:02:54.337Z,42.36
2019-04-11T14:05:22.748Z,42.58
2019-04-11T14:07:55.530Z,42.54
2019-04-11T14:10:23.730Z,42.48
2019-04-11T14:12:53.886Z,42.61
2019-04-11T14:15:23.689Z,42.92
2019-04-11T14:18:11.688Z,43.07
2019-04-11T14:20:47.288Z,43.19
2019-04-11T14:23:26.162Z,42.76
2019-04-11T14:25:56.291Z,42.47
2019-04-11T14:28:41.690Z,42.56
2019-04-11T14:31:11.534Z,42.68
2019-04-11T14:33:57.912Z,43.07
2019-04-11T14:36:45.814Z,43.21
2019-04-11T14:39:18.626Z,43.42
2019-04-11T14:41:59.733Z,43.44
2019-04-11T14:44:29.069Z,43.40
2019-04-11T14:47:07.701Z,43.42
2019-04-11T14:49:36.258Z,43.49
2019-04-11T14:52:25.338Z,43.48
2019-04-11T14:54:53.675Z,43.46
2019-04-11T14:57:26.204Z,43.32
2019-04-11T15:00:08.345Z,43.16
2019-04-11T15:02:41.229Z,43.24
2019-04-11T15:05:13.608Z,43.15
2019-04-11T15:07:41.204Z,43.39
2019-04-11T15:10:26.109Z,43.43
2019-04-11T15:12:55.790Z,43.43
2019-04-11T15:15:25.634Z,43.55
2019-04-11T15:17:55.934Z,43.78
2019-04-11T15:20:26.720Z,44.72
2019-04-11T15:23:02.044Z,46.21
2019-04-11T15:25:48.334Z,46.63
2019-04-11T15:28:20.986Z,47.01
2019-04-11T15:30:50.827Z,48.28
2019-04-11T15:33:26.536Z,48.56
2019-04-11T15:35:58.127Z,48.66
2019-04-11T15:38:40.054Z,48.74
2019-04-11T15:41:09.908Z,48.70
2019-04-11T15:43:56.242Z,48.40
2019-04-11T15:46:26.221Z,48.35
2019-04-11T15:49:05.106Z,48.34
2019-04-11T15:51:40.829Z,48.68
2019-04-11T15:54:16.482Z,49.36
2019-04-11T15:57:01.474Z,49.58
2019-04-11T15:59:31.326Z,49.80
2019-04-11T16:02:17.373Z,49.58
2019-04-11T16:04:47.280Z,49.69
2019-04-11T16:07:23.111Z,49.81
2019-04-11T16:09:52.986Z,50.01
2019-04-11T16:12:25.352Z,49.96
2019-04-11T16:15:13.370Z,49.92
2019-04-11T16:17:46.176Z,49.95
2019-04-11T16:20:17.790Z,49.72
2019-04-11T16:22:49.133Z,49.62
2019-04-11T16:25:19.238Z,49.53
2019-04-11T16:28:01.008Z,49.33
2019-04-11T16:30:30.844Z,49.20
2019-04-11T16:33:06.361Z,48.75
2019-04-11T16:35:51.257Z,48.70
2019-04-11T16:38:29.691Z,49.02
2019-04-11T16:41:11.237Z,49.24
2019-04-11T16:43:41.407Z,49.40
2019-04-11T16:46:29.536Z,49.61
2019-04-11T16:48:58.225Z,49.88
2019-04-11T16:51:31.058Z,50.36
2019-04-11T16:53:56.442Z,50.72
2019-04-11T16:56:24.999Z,51.01
2019-04-11T16:58:53.481Z,51.30
2019-04-11T17:01:23.217Z,51.23
2019-04-11T17:03:54.851Z,51.49
2019-04-11T17:06:29.673Z,51.59
2019-04-11T17:09:11.728Z,51.59
2019-04-11T17:11:40.066Z,51.63
2019-04-11T17:14:08.280Z,51.58
2019-04-11T17:16:36.921Z,51.65
2019-04-11T17:19:06.082Z,51.69
2019-04-11T17:21:42.995Z,51.79
2019-04-11T17:24:04.729Z,51.89
2019-04-11T17:26:33.303Z,52.06
2019-04-11T17:29:01.791Z,52.19
2019-04-11T17:31:30.001Z,52.34
2019-04-11T17:34:01.487Z,52.54
2019-04-11T17:36:28.149Z,52.63
2019-04-11T17:38:56.357Z,52.69
2019-04-11T17:41:24.593Z,52.81
2019-04-11T17:43:52.795Z,52.80
2019-04-11T17:46:21.361Z,53.03
2019-04-11T17:48:50.547Z,52.96
2019-04-11T17:51:18.892Z,52.94
2019-04-11T17:53:47.403Z,52.79
2019-04-11T17:56:16.373Z,52.73
2019-04-11T17:58:44.572Z,52.70
2019-04-11T18:01:12.864Z,52.79
2019-04-11T18:03:42.051Z,52.86
2019-04-11T18:06:11.130Z,52.95
2019-04-11T18:08:39.332Z,52.97
2019-04-11T18:11:07.528Z,52.74
2019-04-11T18:13:35.748Z,52.78
2019-04-11T18:16:04.252Z,52.82
2019-04-11T18:18:34.857Z,53.04
2019-04-11T18:21:07.009Z,53.26
2019-04-11T18:23:32.703Z,53.58
2019-04-11T18:26:01.252Z,53.76
2019-04-11T18:28:29.440Z,53.39
2019-04-11T18:30:58.019Z,53.11
2019-04-11T18:33:26.220Z,53.07
2019-04-11T18:35:54.765Z,52.89
2019-04-11T18:38:22.979Z,52.46
2019-04-11T18:40:51.629Z,52.44
2019-04-11T18:43:19.838Z,52.25
2019-04-11T18:45:48.387Z,52.22
2019-04-11T18:48:16.689Z,52.18
2019-04-11T18:50:45.283Z,52.17
2019-04-11T18:53:13.725Z,52.04
2019-04-11T18:55:41.922Z,52.07
2019-04-11T18:58:10.479Z,52.07
2019-04-11T19:00:39.061Z,51.89
2019-04-11T19:03:07.993Z,51.91
2019-04-11T19:05:37.763Z,52.05
2019-04-11T19:08:05.982Z,52.26
2019-04-11T19:10:34.976Z,52.33
2019-04-11T19:13:03.342Z,52.54
2019-04-11T19:15:31.894Z,52.54
2019-04-11T19:18:06.346Z,52.39
2019-04-11T19:20:30.582Z,52.29
2019-04-11T19:22:59.193Z,52.49
2019-04-11T19:25:27.394Z,52.55
2019-04-11T19:27:57.330Z,52.62
2019-04-11T19:30:26.378Z,52.69
2019-04-11T19:32:55.613Z,52.83
2019-04-11T19:35:24.152Z,52.98
2019-04-11T19:37:52.373Z,53.07
2019-04-11T19:40:20.581Z,53.14
2019-04-11T19:42:49.736Z,53.24
2019-04-11T19:45:19.453Z,53.32
2019-04-11T19:47:51.853Z,53.57
2019-04-11T19:50:18.380Z,53.74
2019-04-11T19:52:46.899Z,53.84
2019-04-11T19:55:19.700Z,54.04
2019-04-11T19:57:48.353Z,54.14
2019-04-11T20:00:16.831Z,54.43
2019-04-11T20:02:46.679Z,54.51
2019-04-11T20:05:14.890Z,54.75
2019-04-11T20:07:43.419Z,54.96
2019-04-11T20:10:11.988Z,55.29
2019-04-11T20:12:40.191Z,55.41
2019-04-11T20:15:08.854Z,55.51
2019-04-11T20:17:44.234Z,55.84
2019-04-11T20:20:07.860Z,56.14
2019-04-11T20:22:39.273Z,56.15
2019-04-11T20:25:07.219Z,56.42
2019-04-11T20:27:35.443Z,56.64
2019-04-11T20:30:05.020Z,56.94
2019-04-11T20:32:33.785Z,57.32
2019-04-11T20:35:02.019Z,57.65
2019-04-11T20:37:39.237Z,57.60
2019-04-11T20:40:00.718Z,57.89
2019-04-11T20:42:28.970Z,58.25
2019-04-11T20:44:58.478Z,58.75
2019-04-11T20:47:29.543Z,58.67
2019-04-11T20:49:57.204Z,58.96
2019-04-11T20:52:25.449Z,59.14
2019-04-11T20:54:53.917Z,59.23
2019-04-11T20:57:25.991Z,59.24
2019-04-11T20:59:52.054Z,59.31
2019-04-11T21:02:20.629Z,59.04
2019-04-11T21:04:48.871Z,58.73
2019-04-11T21:07:17.395Z,58.82
2019-04-11T21:09:45.632Z,58.72
2019-04-11T21:12:14.794Z,58.57
2019-04-11T21:14:43.023Z,58.58
2019-04-11T21:17:11.617Z,58.60
2019-04-11T21:19:40.156Z,58.64
2019-04-11T21:22:08.449Z,58.58
2019-04-11T21:24:37.239Z,58.69
2019-04-11T21:27:06.310Z,58.74
2019-04-11T21:29:34.507Z,58.80
2019-04-11T21:32:02.748Z,58.89
2019-04-11T21:34:32.395Z,59.00
2019-04-11T21:37:02.567Z,59.13
2019-04-11T21:39:30.951Z,59.17
2019-04-11T21:41:59.244Z,59.28
2019-04-11T21:44:27.745Z,59.33
2019-04-11T21:46:55.937Z,59.36
2019-04-11T21:49:24.428Z,59.23
2019-04-11T21:51:52.952Z,59.30
2019-04-11T21:54:21.151Z,59.30
2019-04-11T21:56:50.396Z,59.37
2019-04-11T21:59:20.334Z,59.45
2019-04-11T22:01:48.946Z,59.50
2019-04-11T22:04:17.469Z,59.60
2019-04-11T22:06:45.710Z,59.60
2019-04-11T22:09:13.906Z,59.57
2019-04-11T22:11:42.134Z,59.65
2019-04-11T22:14:11.306Z,59.56
2019-04-11T22:16:44.127Z,59.59
2019-04-11T22:19:13.938Z,59.54
2019-04-11T22:21:40.245Z,59.52
2019-04-11T22:24:08.832Z,59.50
2019-04-11T22:26:37.029Z,59.61
2019-04-11T22:29:05.422Z,59.67
2019-04-11T22:31:33.627Z,59.61
2019-04-11T22:34:03.747Z,59.74
2019-04-11T22:36:31.952Z,59.71
2019-04-11T22:39:01.077Z,59.87
2019-04-11T22:41:30.113Z,59.88
2019-04-11T22:43:58.315Z,59.97
2019-04-11T22:46:26.582Z,60.02
2019-04-11T22:48:55.144Z,60.23
2019-04-11T22:51:23.420Z,60.44
2019-04-11T22:53:59.897Z,60.49
2019-04-11T22:56:21.555Z,60.65
2019-04-11T22:58:49.784Z,60.66
2019-04-11T23:01:18.013Z,60.80
2019-04-11T23:03:48.191Z,60.96
2019-04-11T23:06:17.188Z,61.10
2019-04-11T23:08:48.520Z,61.30
2019-04-11T23:11:15.966Z,61.38
2019-04-11T23:13:45.745Z,61.62
2019-04-11T23:16:14.408Z,61.76
2019-04-11T23:18:44.249Z,61.83
2019-04-11T23:21:14.325Z,61.99
2019-04-11T23:23:43.405Z,62.25
2019-04-11T23:26:12.371Z,62.32
2019-04-11T23:28:40.609Z,62.54
2019-04-11T23:31:08.815Z,62.73
2019-04-11T23:33:37.013Z,62.98
2019-04-11T23:36:05.235Z,63.17
2019-04-11T23:38:33.446Z,63.40
2019-04-11T23:41:01.654Z,63.64
2019-04-11T23:43:29.963Z,63.84
2019-04-11T23:45:59.822Z,64.05
2019-04-11T23:48:28.147Z,64.15
2019-04-11T23:50:56.353Z,64.10
2019-04-11T23:53:28.319Z,64.24
2019-04-11T23:55:59.867Z,64.21
2019-04-11T23:58:25.695Z,64.32
